Time;durP1;ratioP1;P1;durP2;ratioP2;P2;SDS_P1;SDS_P2;PMS_P1;PMS_P2;Temp;Humidity;BMP_temperature;BMP_pressure;BME280_temperature;BME280_humidity;BME280_pressure;Samples;Min_cycle;Max_cycle;Signal;HPM_P1;HPM_P2
2021/12/29 00:00:50;;;;;;;6.90;2.70;;;6.40;99.90;;;7.22;100.00;-19972.63;5007500;28;20261;-61
2021/12/29 00:03:18;;;;;;;7.57;2.43;;;6.40;99.90;;;7.13;100.00;-19969.72;5007415;28;20226;-60
2021/12/29 00:05:46;;;;;;;5.90;2.23;;;6.40;99.90;;;7.08;100.00;-19967.84;5008391;28;20230;-62
2021/12/29 00:08:15;;;;;;;6.33;2.10;;;6.40;99.90;;;7.12;100.00;-19969.22;5008400;28;20293;-61
2021/12/29 00:10:43;;;;;;;4.13;2.17;;;6.30;99.90;;;7.15;100.00;-19970.41;5009091;28;20202;-62
2021/12/29 00:13:11;;;;;;;2.93;2.10;;;6.40;99.90;;;7.06;100.00;-19967.34;5008234;28;20313;-62
2021/12/29 00:15:41;;;;;;;5.43;2.00;;;6.30;99.90;;;7.14;100.00;-19969.91;5008659;28;20310;-61
2021/12/29 00:18:13;;;;;;;9.80;2.50;;;6.30;99.90;;;7.11;100.00;-19968.88;5009051;28;20228;-63
2021/12/29 00:20:41;;;;;;;6.57;2.70;;;6.30;99.90;;;7.24;100.00;-19973.31;5008487;28;20234;-61
2021/12/29 00:23:09;;;;;;;8.73;2.13;;;6.30;99.90;;;7.28;100.00;-19974.84;4999996;28;20230;-61
2021/12/29 00:25:40;;;;;;;3.60;1.87;;;6.40;99.90;;;7.34;100.00;-19976.91;5001643;28;20302;-61
2021/12/29 00:28:08;;;;;;;7.20;2.50;;;6.40;99.90;;;7.18;100.00;-19971.44;5007982;28;20230;-61
2021/12/29 00:30:36;;;;;;;5.33;2.00;;;6.40;99.90;;;7.18;100.00;-19971.28;5007850;28;20313;-62
2021/12/29 00:33:06;;;;;;;4.93;1.90;;;6.40;99.90;;;7.10;100.00;-19968.53;5008213;28;20227;-62
2021/12/29 00:35:35;;;;;;;6.07;2.07;;;6.40;99.90;;;7.09;100.00;-19968.19;5008135;28;20236;-63
2021/12/29 00:38:03;;;;;;;7.73;1.90;;;6.40;99.90;;;7.17;100.00;-19970.94;5007670;28;20297;-62
2021/12/29 00:40:32;;;;;;;8.03;2.00;;;6.30;99.90;;;7.07;100.00;-19967.50;5008495;28;20249;-62
2021/12/29 00:43:00;;;;;;;5.70;2.03;;;6.30;99.90;;;7.07;100.00;-19967.50;5008010;28;20257;-62
2021/12/29 00:45:31;;;;;;;5.07;2.13;;;6.30;99.90;;;7.06;100.00;-19967.34;5008259;28;20317;-62
2021/12/29 00:48:00;;;;;;;6.30;2.17;;;6.30;99.90;;;7.06;100.00;-19967.34;5008311;28;20226;-61
2021/12/29 00:50:29;;;;;;;3.33;2.10;;;6.30;99.90;;;7.03;100.00;-19966.16;5007883;28;20297;-63
2021/12/29 00:52:57;;;;;;;4.57;1.80;;;6.30;99.90;;;7.02;100.00;-19965.97;5008006;28;20234;-63
2021/12/29 00:55:26;;;;;;;3.97;1.90;;;6.30;99.90;;;7.00;100.00;-19965.28;5010330;28;20233;-63
2021/12/29 00:57:54;;;;;;;3.63;2.17;;;6.30;99.90;;;7.04;100.00;-19966.66;5010372;28;20234;-64
2021/12/29 01:00:25;;;;;;;7.10;2.17;;;6.30;99.90;;;7.01;100.00;-19965.47;5010717;28;20806;-63
2021/12/29 01:02:53;;;;;;;4.73;2.07;;;6.30;99.90;;;6.96;100.00;-19963.91;5011591;28;20313;-64
2021/12/29 01:05:22;;;;;;;5.40;2.20;;;6.20;99.90;;;6.89;100.00;-19961.34;5011537;28;20246;-64
2021/12/29 01:07:52;;;;;;;9.03;2.90;;;6.20;99.90;;;6.84;100.00;-19959.66;5012182;28;20238;-64
2021/12/29 01:10:20;;;;;;;8.23;2.93;;;6.20;99.90;;;6.83;100.00;-19959.31;5011594;28;20231;-66
2021/12/29 01:12:56;;;;;;;11.00;3.17;;;6.10;99.90;;;6.83;100.00;-19959.47;5011592;28;20223;-63
2021/12/29 01:15:32;;;;;;;6.20;2.73;;;6.10;99.90;;;6.77;100.00;-19957.44;5012657;28;20726;-63
2021/12/29 01:18:04;;;;;;;5.67;2.33;;;6.10;99.90;;;6.80;100.00;-19958.28;5015189;28;20276;-63
2021/12/29 01:20:34;;;;;;;8.67;2.70;;;6.00;99.90;;;6.69;100.00;-19954.53;5015262;28;20637;-62
2021/12/29 01:23:03;;;;;;;5.17;2.20;;;6.00;99.90;;;6.61;100.00;-19951.78;5015340;28;20203;-64
2021/12/29 01:25:32;;;;;;;4.47;2.13;;;5.90;99.90;;;6.53;100.00;-19949.06;5015946;28;20285;-63
2021/12/29 01:28:00;;;;;;;8.50;2.10;;;5.90;99.90;;;6.43;100.00;-19945.81;5015681;28;20249;-62
2021/12/29 01:30:28;;;;;;;5.43;2.00;;;5.80;99.90;;;6.43;100.00;-19945.81;5014822;28;20706;-63
2021/12/29 01:32:57;;;;;;;5.97;2.27;;;5.80;99.90;;;6.36;100.00;-19943.41;5015281;28;20317;-63
2021/12/29 01:35:25;;;;;;;5.43;2.50;;;5.70;99.90;;;6.33;100.00;-19942.38;5014291;28;20234;-62
2021/12/29 01:37:53;;;;;;;5.00;2.07;;;5.70;99.90;;;6.34;100.00;-19942.56;5014951;28;20285;-63
2021/12/29 01:40:22;;;;;;;4.87;2.90;;;5.70;99.90;;;6.36;100.00;-19943.25;5014059;28;20379;-63
2021/12/29 01:42:51;;;;;;;4.83;2.60;;;5.70;99.90;;;6.36;100.00;-19943.41;5014016;28;20254;-63
2021/12/29 01:45:19;;;;;;;7.17;2.60;;;5.70;99.90;;;6.38;100.00;-19944.09;5013903;28;20261;-63
2021/12/29 01:47:48;;;;;;;9.47;3.57;;;5.70;99.90;;;6.51;100.00;-19948.53;5014282;28;20238;-65
2021/12/29 01:50:18;;;;;;;8.27;3.23;;;5.70;99.90;;;6.66;100.00;-19953.50;5013903;28;20301;-64
2021/12/29 01:52:54;;;;;;;8.80;3.27;;;5.80;99.90;;;6.65;100.00;-19953.31;5014769;28;20257;-63
2021/12/29 01:55:25;;;;;;;5.43;2.60;;;5.80;99.90;;;6.69;100.00;-19954.53;5014035;28;20318;-63
2021/12/29 01:57:54;;;;;;;5.07;2.60;;;5.90;99.90;;;6.65;100.00;-19953.31;5013701;28;20253;-63
2021/12/29 02:00:26;;;;;;;9.30;3.27;;;5.90;99.90;;;6.64;100.00;-19952.97;5013667;28;20335;-63
2021/12/29 02:02:55;;;;;;;10.93;2.97;;;5.90;99.90;;;6.61;100.00;-19951.78;5013942;28;20229;-64
2021/12/29 02:05:24;;;;;;;5.43;3.00;;;5.90;99.90;;;6.66;100.00;-19953.50;5013764;28;20784;-64
2021/12/29 02:07:52;;;;;;;6.37;2.97;;;5.90;99.90;;;6.64;100.00;-19952.97;5014206;28;20297;-62
2021/12/29 02:10:22;;;;;;;9.47;2.60;;;5.90;99.90;;;6.65;100.00;-19953.31;5013624;28;20250;-63
2021/12/29 02:12:52;;;;;;;5.03;2.43;;;5.90;99.90;;;6.67;100.00;-19953.84;5013590;28;20385;-63
2021/12/29 02:15:22;;;;;;;12.17;3.03;;;5.90;99.90;;;6.65;100.00;-19953.16;5013219;28;20293;-64
2021/12/29 02:17:51;;;;;;;5.03;2.43;;;5.90;99.90;;;6.68;100.00;-19954.19;5013656;28;20250;-63
2021/12/29 02:20:21;;;;;;;8.23;3.20;;;5.90;99.90;;;6.75;100.00;-19956.75;5013628;28;20238;-62
2021/12/29 02:22:59;;;;;;;7.60;3.50;;;6.00;99.90;;;6.73;100.00;-19955.88;5013844;28;20306;-62
2021/12/29 02:25:46;;;;;;;7.83;4.07;;;6.00;99.90;;;6.80;100.00;-19958.44;5011516;28;20305;-63
2021/12/29 02:28:15;;;;;;;8.17;3.33;;;6.00;99.90;;;6.96;100.00;-19963.75;4998106;28;20233;-62
2021/12/29 02:30:44;;;;;;;7.67;3.63;;;6.00;99.90;;;6.82;100.00;-19958.97;5002765;28;20302;-63
2021/12/29 02:33:13;;;;;;;7.70;3.63;;;6.00;99.90;;;6.82;100.00;-19958.97;5013497;28;20283;-64
2021/12/29 02:35:44;;;;;;;7.73;3.37;;;6.00;99.90;;;6.83;100.00;-19959.31;5013590;28;20251;-63
2021/12/29 02:38:26;;;;;;;6.77;3.43;;;6.00;99.90;;;6.77;100.00;-19957.25;5013704;28;20583;-63
2021/12/29 02:40:58;;;;;;;5.00;2.97;;;6.00;99.90;;;6.68;100.00;-19954.34;5013999;28;20214;-62
2021/12/29 02:43:26;;;;;;;6.73;3.60;;;6.00;99.90;;;6.66;100.00;-19953.66;5013576;28;20302;-62
2021/12/29 02:45:59;;;;;;;9.03;3.47;;;6.00;99.90;;;6.67;100.00;-19953.84;5013164;28;20273;-62
2021/12/29 02:48:31;;;;;;;8.13;3.17;;;6.00;99.90;;;6.73;100.00;-19956.06;5013648;28;20288;-64
2021/12/29 02:51:04;;;;;;;5.17;2.47;;;6.00;99.90;;;6.81;100.00;-19958.78;5013349;28;20254;-63
2021/12/29 02:53:32;;;;;;;7.57;2.60;;;6.00;99.90;;;6.70;100.00;-19954.84;5013555;28;20254;-63
2021/12/29 02:56:00;;;;;;;4.17;2.20;;;6.00;99.90;;;6.95;100.00;-19963.41;5013662;28;20209;-63
2021/12/29 02:58:28;;;;;;;5.53;1.90;;;6.00;99.90;;;7.27;100.00;-19974.50;5014775;28;20234;-63
2021/12/29 03:00:57;;;;;;;4.57;2.00;;;6.10;99.90;;;7.27;100.00;-19974.34;5013244;28;20230;-62
2021/12/29 03:03:30;;;;;;;7.17;1.90;;;6.10;99.90;;;7.13;100.00;-19969.56;5013558;28;20222;-64
2021/12/29 03:06:00;;;;;;;5.17;1.60;;;6.20;99.90;;;7.08;100.00;-19968.03;5013323;28;20317;-63
2021/12/29 03:08:28;;;;;;;3.87;1.80;;;6.20;99.90;;;6.95;100.00;-19963.56;5013264;28;20261;-63
2021/12/29 03:10:57;;;;;;;3.57;1.77;;;6.20;99.90;;;6.87;100.00;-19960.66;5013106;28;20206;-63
2021/12/29 03:13:29;;;;;;;4.43;1.87;;;6.10;99.90;;;6.98;100.00;-19964.59;5010926;28;20306;-63
2021/12/29 03:15:58;;;;;;;4.70;1.97;;;6.10;99.90;;;6.97;100.00;-19964.25;4992972;28;20733;-63
2021/12/29 03:18:26;;;;;;;5.13;2.20;;;6.10;99.90;;;6.95;100.00;-19963.56;4998276;28;20238;-63
2021/12/29 03:20:54;;;;;;;5.47;2.20;;;6.10;99.90;;;7.17;100.00;-19971.09;5012961;28;20222;-62
2021/12/29 03:23:25;;;;;;;5.23;2.60;;;6.20;99.90;;;7.06;100.00;-19967.16;5012777;28;20234;-63
2021/12/29 03:25:53;;;;;;;6.07;2.00;;;6.20;99.90;;;7.14;100.00;-19969.91;5013417;28;20225;-63
2021/12/29 03:28:24;;;;;;;2.80;1.60;;;6.20;99.90;;;7.13;100.00;-19969.56;5013070;28;20222;-63
2021/12/29 03:30:56;;;;;;;3.17;2.00;;;6.20;99.90;;;7.00;100.00;-19965.28;5012730;28;20297;-62
2021/12/29 03:33:30;;;;;;;6.70;2.30;;;6.20;99.90;;;7.03;100.00;-19966.31;5013007;28;20238;-63
2021/12/29 03:36:02;;;;;;;4.83;1.90;;;6.20;99.90;;;7.08;100.00;-19968.03;5012267;28;20310;-63
2021/12/29 03:38:36;;;;;;;5.77;2.40;;;6.20;99.90;;;7.03;100.00;-19966.31;5012455;28;20246;-63
2021/12/29 03:41:10;;;;;;;5.10;2.20;;;6.20;99.90;;;7.13;100.00;-19969.56;5012643;28;20197;-63
2021/12/29 03:43:39;;;;;;;5.90;2.03;;;6.20;99.90;;;7.13;100.00;-19969.72;5013030;28;20241;-63
2021/12/29 03:46:09;;;;;;;5.53;2.40;;;6.20;99.90;;;6.99;100.00;-19964.78;5012323;28;20258;-64
2021/12/29 03:48:41;;;;;;;4.53;2.33;;;6.20;99.90;;;7.11;100.00;-19968.88;5012710;28;20665;-63
2021/12/29 03:51:10;;;;;;;7.50;2.20;;;6.20;99.90;;;7.00;100.00;-19965.28;5012724;28;20265;-64
2021/12/29 03:53:40;;;;;;;7.43;2.60;;;6.20;99.90;;;7.01;100.00;-19965.63;5012398;28;20277;-63
2021/12/29 03:56:09;;;;;;;6.47;2.77;;;6.20;99.90;;;7.12;100.00;-19969.38;5010386;28;20222;-64
2021/12/29 03:58:37;;;;;;;5.63;2.93;;;6.20;99.90;;;7.15;100.00;-19970.41;5012337;28;20203;-64
2021/12/29 04:01:11;;;;;;;6.57;3.13;;;6.20;99.90;;;6.94;100.00;-19963.25;5011800;28;20318;-63
2021/12/29 04:03:42;;;;;;;7.73;3.53;;;6.10;99.90;;;7.12;100.00;-19969.22;5012125;28;20705;-63
2021/12/29 04:06:10;;;;;;;6.87;3.70;;;6.20;99.90;;;7.09;100.00;-19968.19;5011957;28;20588;-63
2021/12/29 04:08:40;;;;;;;8.33;3.20;;;6.20;99.90;;;7.06;100.00;-19967.16;5012011;28;20599;-63
2021/12/29 04:11:14;;;;;;;4.27;2.97;;;6.20;99.90;;;6.99;100.00;-19964.78;5012289;28;20273;-62
2021/12/29 04:13:43;;;;;;;9.10;3.70;;;6.20;99.90;;;6.97;100.00;-19964.09;5008159;28;20206;-63
2021/12/29 04:16:16;;;;;;;5.50;3.73;;;6.10;99.90;;;7.13;100.00;-19969.72;5009791;28;20229;-63
2021/12/29 04:19:05;;;;;;;6.50;3.43;;;6.20;99.90;;;7.09;100.00;-19968.19;5011987;28;20228;-64
2021/12/29 04:21:36;;;;;;;6.43;3.60;;;6.20;99.90;;;7.08;100.00;-19967.84;5012035;28;20321;-63
2021/12/29 04:24:08;;;;;;;7.80;3.87;;;6.20;99.90;;;7.28;100.00;-19974.84;5011847;28;20643;-63
2021/12/29 04:26:38;;;;;;;5.23;3.10;;;6.30;99.90;;;7.14;100.00;-19969.91;5000514;28;20222;-62
2021/12/29 04:29:09;;;;;;;6.77;3.50;;;6.30;99.90;;;7.03;100.00;-19966.16;4992282;28;20195;-63
2021/12/29 04:31:37;;;;;;;6.17;3.00;;;6.20;99.90;;;7.16;100.00;-19970.75;4992408;28;20223;-65
2021/12/29 04:34:06;;;;;;;6.00;3.37;;;6.20;99.90;;;7.15;100.00;-19970.25;4992061;28;20325;-63
2021/12/29 04:36:35;;;;;;;5.47;3.17;;;6.20;99.90;;;7.20;100.00;-19971.94;5011795;28;20226;-63
2021/12/29 04:39:06;;;;;;;4.33;2.97;;;6.30;99.90;;;7.04;100.00;-19966.66;5012042;28;20226;-63
2021/12/29 04:41:35;;;;;;;6.37;3.20;;;6.20;99.90;;;6.90;100.00;-19961.69;5012303;28;20314;-62
2021/12/29 04:44:05;;;;;;;6.47;3.37;;;6.20;99.90;;;6.73;100.00;-19956.06;5011513;28;20728;-62
2021/12/29 04:46:38;;;;;;;9.03;4.27;;;6.10;99.90;;;6.68;100.00;-19954.34;5011763;28;20687;-61
2021/12/29 04:49:11;;;;;;;11.27;4.27;;;6.00;99.90;;;6.55;100.00;-19949.91;5008432;28;20272;-62
2021/12/29 04:51:48;;;;;;;8.43;4.33;;;5.90;99.90;;;6.67;100.00;-19954.00;5015439;28;20237;-62
2021/12/29 04:54:18;;;;;;;12.70;5.90;;;5.90;99.90;;;6.57;100.00;-19950.59;5015853;28;20258;-61
2021/12/29 04:56:46;;;;;;;11.53;4.37;;;5.80;99.90;;;6.65;100.00;-19953.31;5015585;28;20305;-62
2021/12/29 04:59:15;;;;;;;11.67;4.73;;;5.90;99.90;;;6.59;100.00;-19951.09;5015334;28;20234;-63
2021/12/29 05:01:45;;;;;;;10.27;4.57;;;5.80;99.90;;;6.56;100.00;-19950.09;5015955;28;20194;-62
2021/12/29 05:04:20;;;;;;;7.00;4.40;;;5.80;99.90;;;6.75;100.00;-19956.75;5014886;28;20325;-61
2021/12/29 05:09:38;;;;;;;8.43;5.30;;;5.80;99.90;;;6.61;100.00;-19951.78;5015530;28;20229;-63
2021/12/29 05:12:08;;;;;;;10.80;4.63;;;5.80;99.90;;;6.42;100.00;-19945.47;5015087;28;20789;-62
2021/12/29 05:14:38;;;;;;;9.20;4.40;;;5.70;99.90;;;6.28;100.00;-19940.50;5014997;28;20301;-62
2021/12/29 05:17:07;;;;;;;7.47;4.17;;;5.60;99.90;;;6.10;100.00;-19934.69;5015093;28;20227;-61
2021/12/29 05:19:36;;;;;;;9.47;4.17;;;5.60;99.90;;;5.92;100.00;-19928.53;5015658;28;20302;-63
2021/12/29 05:22:05;;;;;;;7.63;3.90;;;5.40;99.90;;;5.80;100.00;-19924.28;5015109;28;20253;-63
2021/12/29 05:24:33;;;;;;;8.60;3.63;;;5.30;99.90;;;5.72;100.00;-19921.69;5015075;28;20230;-62
2021/12/29 05:27:03;;;;;;;6.40;4.37;;;5.20;99.90;;;5.72;100.00;-19921.69;5015210;28;20236;-61
2021/12/29 05:29:31;;;;;;;11.60;5.63;;;5.20;99.90;;;5.67;100.00;-19920.00;5014643;28;20309;-61
2021/12/29 05:32:00;;;;;;;14.83;6.03;;;5.10;99.90;;;5.56;100.00;-19916.25;5014602;28;20651;-63
2021/12/29 05:34:28;;;;;;;8.47;5.00;;;5.00;99.90;;;5.62;100.00;-19918.28;5015105;28;20278;-61
2021/12/29 05:36:56;;;;;;;9.63;5.30;;;5.00;99.90;;;5.63;100.00;-19918.47;5014663;28;20234;-62
2021/12/29 05:39:24;;;;;;;14.83;6.83;;;5.00;99.90;;;5.93;100.00;-19928.88;5014671;28;20631;-61
2021/12/29 05:41:52;;;;;;;14.00;7.03;;;5.10;99.90;;;5.97;100.00;-19930.25;5014619;28;20292;-61
2021/12/29 05:44:21;;;;;;;7.90;5.63;;;5.20;99.90;;;5.98;100.00;-19930.44;5014234;28;20648;-62
2021/12/29 05:46:49;;;;;;;11.27;6.30;;;5.20;99.90;;;6.01;100.00;-19931.44;5015083;28;20310;-62
2021/12/29 05:49:19;;;;;;;8.57;6.33;;;5.30;99.90;;;6.05;100.00;-19932.97;5014014;28;20594;-62
2021/12/29 05:51:47;;;;;;;8.00;7.13;;;5.30;99.90;;;6.14;100.00;-19935.88;5014409;28;20265;-61
2021/12/29 05:54:15;;;;;;;8.67;6.73;;;5.30;99.90;;;6.16;100.00;-19936.56;5013878;28;20314;-62
2021/12/29 05:56:43;;;;;;;12.67;7.00;;;5.40;99.90;;;6.49;100.00;-19947.84;5014510;28;20228;-62
2021/12/29 05:59:11;;;;;;;12.10;5.60;;;5.40;99.90;;;6.36;100.00;-19943.41;5013767;28;20203;-62
2021/12/29 06:01:43;;;;;;;11.37;7.47;;;5.50;99.90;;;6.39;100.00;-19944.44;5013347;28;20277;-62
2021/12/29 06:04:12;;;;;;;12.57;7.83;;;5.60;99.90;;;6.35;100.00;-19942.91;5013933;28;20265;-62
2021/12/29 06:06:40;;;;;;;10.73;7.00;;;5.60;99.90;;;6.53;100.00;-19949.06;5014692;28;20290;-62
2021/12/29 06:09:08;;;;;;;12.17;7.10;;;5.60;99.90;;;6.48;100.00;-19947.34;5014070;28;20759;-62
2021/12/29 06:11:36;;;;;;;15.33;7.93;;;5.60;99.90;;;6.45;100.00;-19946.50;5014460;28;20245;-61
2021/12/29 06:14:05;;;;;;;10.90;5.43;;;5.70;99.90;;;6.45;100.00;-19946.31;5013696;28;20690;-62
2021/12/29 06:16:33;;;;;;;14.03;6.53;;;5.60;99.90;;;6.60;100.00;-19951.63;5014502;28;20247;-61
2021/12/29 06:19:02;;;;;;;7.00;4.27;;;5.70;99.90;;;6.54;100.00;-19949.41;5013944;28;20231;-62
2021/12/29 06:21:30;;;;;;;18.50;7.73;;;5.70;99.90;;;6.54;100.00;-19949.41;5014099;28;20230;-62
2021/12/29 06:23:58;;;;;;;21.30;7.27;;;5.70;99.90;;;6.58;100.00;-19950.94;5013721;28;20373;-61
2021/12/29 06:26:26;;;;;;;19.53;7.57;;;5.70;99.90;;;6.50;100.00;-19948.19;5013835;28;20230;-61
2021/12/29 06:28:56;;;;;;;11.70;5.13;;;5.70;99.90;;;6.52;100.00;-19948.88;5014234;28;20207;-60
2021/12/29 06:31:25;;;;;;;18.50;6.43;;;5.70;99.90;;;6.61;100.00;-19951.97;5014020;28;20729;-62
2021/12/29 06:33:53;;;;;;;11.57;4.90;;;5.70;99.90;;;6.67;100.00;-19953.84;5013631;28;20233;-62
2021/12/29 06:36:23;;;;;;;11.43;4.77;;;5.80;99.90;;;6.63;100.00;-19952.63;5013680;28;20222;-62
2021/12/29 06:38:51;;;;;;;15.97;5.30;;;5.80;99.90;;;6.54;100.00;-19949.56;5013496;28;20603;-62
2021/12/29 06:41:19;;;;;;;15.10;5.37;;;5.80;99.90;;;6.60;100.00;-19951.44;5013635;28;20308;-63
2021/12/29 06:43:47;;;;;;;11.63;5.40;;;5.80;99.90;;;6.56;100.00;-19950.25;5014011;28;20293;-63
2021/12/29 06:46:15;;;;;;;15.13;5.13;;;5.80;99.90;;;6.52;100.00;-19948.72;5013156;28;20231;-63
2021/12/29 06:48:43;;;;;;;9.67;4.80;;;5.80;99.90;;;6.48;100.00;-19947.50;5013473;28;20230;-63
2021/12/29 06:51:11;;;;;;;9.23;4.33;;;5.80;99.90;;;6.52;100.00;-19948.88;5013327;28;20715;-62
2021/12/29 06:53:41;;;;;;;6.60;3.30;;;5.80;99.90;;;6.49;100.00;-19947.84;5013293;28;20433;-63
2021/12/29 06:56:09;;;;;;;5.93;3.17;;;5.70;99.90;;;6.44;100.00;-19946.16;5012980;28;20225;-62
2021/12/29 06:58:37;;;;;;;4.53;3.30;;;5.80;99.90;;;6.44;100.00;-19945.97;5013829;28;20317;-63
2021/12/29 07:01:06;;;;;;;8.13;3.33;;;5.70;99.90;;;6.46;100.00;-19946.66;5013008;28;20233;-63
2021/12/29 07:03:34;;;;;;;3.20;2.73;;;5.70;99.90;;;6.48;100.00;-19947.50;5013244;28;20229;-63
2021/12/29 07:06:02;;;;;;;4.30;2.40;;;5.80;99.90;;;6.51;100.00;-19948.53;5012732;28;20598;-63
2021/12/29 07:08:30;;;;;;;6.07;3.63;;;5.70;99.90;;;6.58;100.00;-19950.94;5012742;28;20249;-62
2021/12/29 07:11:00;;;;;;;10.13;4.50;;;5.80;99.90;;;6.56;100.00;-19950.25;5013272;28;20234;-62
2021/12/29 07:13:28;;;;;;;7.20;3.30;;;5.80;99.90;;;6.64;100.00;-19952.81;5013317;28;20543;-62
2021/12/29 07:15:56;;;;;;;7.87;3.67;;;5.80;99.90;;;6.69;100.00;-19954.69;5012700;28;20786;-62
2021/12/29 07:18:24;;;;;;;8.27;3.43;;;5.80;99.90;;;6.63;100.00;-19952.63;5012679;28;20710;-63
2021/12/29 07:20:52;;;;;;;10.97;3.50;;;5.90;99.90;;;6.63;100.00;-19952.47;5012855;28;20636;-62
2021/12/29 07:23:20;;;;;;;6.33;3.33;;;5.90;99.90;;;6.66;100.00;-19953.66;5012871;28;20230;-64
2021/12/29 07:25:48;;;;;;;6.17;3.53;;;5.90;99.90;;;6.67;100.00;-19954.00;5012808;28;20610;-63
2021/12/29 07:28:18;;;;;;;8.27;3.73;;;5.90;99.90;;;6.92;100.00;-19962.56;5012572;28;20233;-63
2021/12/29 07:30:46;;;;;;;7.10;3.33;;;6.00;99.90;;;6.82;100.00;-19958.97;5012488;28;20227;-63
2021/12/29 07:33:14;;;;;;;10.97;4.10;;;6.00;99.90;;;6.78;100.00;-19957.75;5012760;28;20233;-63
2021/12/29 07:35:42;;;;;;;5.50;2.90;;;6.00;99.90;;;6.91;100.00;-19962.03;5012588;28;20222;-62
2021/12/29 07:38:10;;;;;;;16.33;6.17;;;6.00;99.90;;;6.90;100.00;-19961.88;5012332;28;20254;-63
2021/12/29 07:40:38;;;;;;;11.63;5.07;;;6.10;99.90;;;6.90;100.00;-19961.88;5013124;28;20207;-62
2021/12/29 07:43:06;;;;;;;8.90;4.27;;;6.10;99.90;;;7.00;100.00;-19965.13;5012087;28;20232;-62
2021/12/29 07:45:36;;;;;;;10.30;4.53;;;6.10;99.90;;;7.01;100.00;-19965.47;5012130;28;20250;-62
2021/12/29 07:48:05;;;;;;;13.63;6.83;;;6.20;99.90;;;7.06;100.00;-19967.16;5012467;28;20657;-62
2021/12/29 07:50:33;;;;;;;14.80;7.10;;;6.20;99.90;;;7.07;100.00;-19967.50;5012742;28;20323;-61
2021/12/29 07:53:01;;;;;;;13.37;6.17;;;6.20;99.90;;;7.28;100.00;-19974.69;5012597;28;20317;-62
2021/12/29 07:55:30;;;;;;;8.83;5.80;;;6.30;99.90;;;7.18;100.00;-19971.28;5013480;28;20262;-62
2021/12/29 07:57:59;;;;;;;11.87;5.30;;;6.30;99.90;;;7.07;100.00;-19967.69;5012359;28;20226;-62
2021/12/29 08:00:28;;;;;;;10.60;6.40;;;6.30;99.90;;;7.06;100.00;-19967.16;5012542;28;20229;-62
2021/12/29 08:02:58;;;;;;;6.33;4.30;;;6.30;99.90;;;7.11;100.00;-19969.03;5012444;28;20344;-61
2021/12/29 08:05:26;;;;;;;6.93;4.53;;;6.30;99.90;;;7.09;100.00;-19968.38;5012266;28;20226;-61
2021/12/29 08:07:54;;;;;;;4.53;3.93;;;6.30;99.90;;;7.09;100.00;-19968.19;5012478;28;20221;-62
2021/12/29 08:10:22;;;;;;;7.03;4.60;;;6.30;99.90;;;7.08;100.00;-19968.03;5011972;28;20268;-62
2021/12/29 08:12:50;;;;;;;6.13;4.60;;;6.30;99.90;;;7.12;100.00;-19969.38;5011724;28;20218;-62
2021/12/29 08:15:18;;;;;;;8.57;4.80;;;6.30;99.90;;;7.29;100.00;-19975.03;5009902;28;20315;-63
2021/12/29 08:17:50;;;;;;;7.90;4.97;;;6.30;99.90;;;7.24;100.00;-19973.31;5004552;28;20242;-62
2021/12/29 08:20:21;;;;;;;8.27;4.90;;;6.30;99.90;;;7.35;100.00;-19977.25;5011777;28;20234;-62
2021/12/29 08:22:49;;;;;;;7.93;5.00;;;6.40;99.90;;;7.43;100.00;-19979.81;5011204;28;20634;-62
2021/12/29 08:25:17;;;;;;;11.83;6.13;;;6.40;99.90;;;7.36;100.00;-19977.59;5009584;28;20242;-61
2021/12/29 08:27:46;;;;;;;14.47;7.70;;;6.50;99.90;;;7.46;100.00;-19980.66;5011018;28;20257;-61
2021/12/29 08:30:15;;;;;;;16.00;7.60;;;6.50;99.90;;;7.43;100.00;-19979.97;5011350;28;20302;-62
2021/12/29 08:32:44;;;;;;;9.13;5.47;;;6.50;99.90;;;7.50;100.00;-19982.03;5011724;28;20309;-61
2021/12/29 08:35:13;;;;;;;6.97;4.90;;;6.60;99.90;;;7.47;100.00;-19981.19;5011171;28;20230;-62
2021/12/29 08:37:45;;;;;;;9.63;5.50;;;6.60;99.90;;;7.50;100.00;-19982.03;5011676;28;20702;-61
2021/12/29 08:40:14;;;;;;;9.80;6.10;;;6.60;99.90;;;7.50;100.00;-19982.19;4995826;28;20314;-62
2021/12/29 08:42:43;;;;;;;8.63;5.67;;;6.60;99.90;;;7.58;100.00;-19984.94;5011049;28;20256;-61
2021/12/29 08:45:14;;;;;;;11.07;6.27;;;6.60;99.90;;;7.59;100.00;-19985.28;5011508;28;20390;-62
2021/12/29 08:47:44;;;;;;;9.43;6.60;;;6.70;99.90;;;7.60;100.00;-19985.63;5011473;28;20292;-61
2021/12/29 08:50:18;;;;;;;11.03;6.27;;;6.70;99.90;;;7.71;100.00;-19989.22;5011546;28;20261;-62
2021/12/29 08:52:47;;;;;;;11.93;6.70;;;6.80;99.90;;;7.79;100.00;-19991.94;5011496;28;20282;-62
2021/12/29 08:55:16;;;;;;;10.93;6.23;;;6.80;99.90;;;7.78;100.00;-19991.59;5011920;28;20245;-62
2021/12/29 08:57:44;;;;;;;10.50;6.00;;;6.90;99.90;;;7.80;100.00;-19992.28;5009698;28;20313;-62
2021/12/29 09:00:16;;;;;;;8.97;6.40;;;6.90;99.90;;;7.87;100.00;-19994.84;5011233;28;20242;-63
2021/12/29 09:02:45;;;;;;;8.90;5.83;;;6.90;99.90;;;7.82;100.00;-19993.13;5011760;28;20226;-62
2021/12/29 09:05:16;;;;;;;10.63;5.67;;;6.90;99.90;;;7.95;100.00;-19997.41;5011561;28;20203;-62
2021/12/29 09:07:45;;;;;;;9.27;6.23;;;7.00;99.90;;;7.85;100.00;-19994.00;5011415;28;20265;-62
2021/12/29 09:10:17;;;;;;;10.80;6.83;;;7.00;99.90;;;7.95;100.00;-19997.41;5010896;28;20242;-62
2021/12/29 09:12:47;;;;;;;9.67;6.73;;;7.00;99.90;;;8.12;100.00;-20003.22;5011138;28;20219;-62
2021/12/29 09:15:16;;;;;;;7.83;5.60;;;7.10;99.90;;;8.31;100.00;-20009.72;5010720;28;20222;-62
2021/12/29 09:17:44;;;;;;;8.10;6.10;;;7.10;99.90;;;8.25;100.00;-20007.66;5010904;28;20302;-61
2021/12/29 09:20:23;;;;;;;8.67;5.67;;;7.10;99.90;;;8.06;100.00;-20001.16;5011010;28;20218;-63
2021/12/29 09:22:52;;;;;;;7.63;5.93;;;7.20;99.90;;;7.99;100.00;-19998.78;4998053;28;20221;-62
2021/12/29 09:25:23;;;;;;;8.50;6.73;;;7.10;99.90;;;8.00;100.00;-19999.28;5009681;28;20223;-62
2021/12/29 09:27:52;;;;;;;11.00;7.07;;;7.10;99.90;;;8.15;100.00;-20004.25;5009029;28;20324;-62
2021/12/29 09:30:23;;;;;;;11.90;7.10;;;7.10;99.90;;;8.11;100.00;-20002.88;5014259;28;20341;-64
2021/12/29 09:32:51;;;;;;;8.63;5.90;;;7.10;99.90;;;7.99;100.00;-19998.94;5031121;28;20701;-63
2021/12/29 09:35:21;;;;;;;7.00;5.53;;;7.10;99.90;;;8.00;100.00;-19999.13;5016506;28;20250;-62
2021/12/29 09:37:50;;;;;;;7.47;5.30;;;7.10;99.90;;;8.03;100.00;-20000.16;5014449;28;20349;-65
2021/12/29 09:40:22;;;;;;;6.70;5.50;;;7.10;99.90;;;8.01;100.00;-19999.47;5014606;28;20313;-66
2021/12/29 09:42:53;;;;;;;8.10;5.40;;;7.10;99.90;;;7.93;100.00;-19996.91;5010724;28;20296;-66
2021/12/29 09:45:22;;;;;;;7.00;5.60;;;7.10;99.90;;;7.98;100.00;-19998.44;5008763;28;20737;-67
2021/12/29 09:47:50;;;;;;;8.13;5.87;;;7.10;99.90;;;7.96;100.00;-19997.75;5013460;28;20222;-69
2021/12/29 09:50:23;;;;;;;7.20;5.50;;;7.10;99.90;;;7.98;100.00;-19998.59;5014432;28;20269;-67
2021/12/29 09:52:52;;;;;;;7.83;5.40;;;7.10;99.90;;;7.96;100.00;-19997.75;5014457;28;20887;-67
2021/12/29 09:55:23;;;;;;;7.23;6.03;;;7.10;99.90;;;7.91;100.00;-19996.22;5014273;28;20273;-67
2021/12/29 09:57:55;;;;;;;7.33;5.70;;;7.10;99.90;;;7.93;100.00;-19996.72;5013392;28;20218;-69
2021/12/29 10:00:28;;;;;;;6.23;5.37;;;7.10;99.90;;;7.97;100.00;-19998.25;5014602;28;20304;-70
2021/12/29 10:02:59;;;;;;;6.57;5.77;;;7.10;99.90;;;8.02;100.00;-19999.97;5014497;28;20237;-69
2021/12/29 10:05:30;;;;;;;7.13;5.90;;;7.20;99.90;;;8.02;100.00;-19999.97;5014075;28;20226;-68
2021/12/29 10:08:02;;;;;;;6.53;5.50;;;7.20;99.90;;;8.05;100.00;-20000.84;5014440;28;22233;-66
2021/12/29 10:10:33;;;;;;;8.57;6.57;;;7.20;99.90;;;8.13;100.00;-20003.56;5014130;28;20621;-63
2021/12/29 10:13:02;;;;;;;6.30;5.60;;;7.20;99.90;;;8.16;100.00;-20004.75;5013366;28;20301;-65
2021/12/29 10:15:34;;;;;;;6.30;5.10;;;7.20;99.90;;;8.14;100.00;-20004.06;5013511;28;20694;-64
2021/12/29 10:18:07;;;;;;;7.50;6.43;;;7.30;99.90;;;8.16;100.00;-20004.59;5013981;28;20229;-64
2021/12/29 10:20:47;;;;;;;6.53;5.40;;;7.30;99.90;;;8.25;100.00;-20007.66;5013387;28;20223;-64
2021/12/29 10:23:22;;;;;;;16.03;9.77;;;7.30;99.90;;;8.40;100.00;-20012.97;5012655;28;20665;-65
2021/12/29 10:25:56;;;;;;;8.57;6.50;;;7.40;99.90;;;8.22;100.00;-20006.63;5013038;28;20294;-64
2021/12/29 10:28:28;;;;;;;7.10;5.27;;;7.40;99.90;;;8.36;100.00;-20011.44;5013521;28;20219;-63
2021/12/29 10:31:04;;;;;;;8.17;5.37;;;7.40;99.90;;;8.24;100.00;-20007.31;5013768;28;20592;-64